Time;durP1;ratioP1;P1;durP2;ratioP2;P2;SDS_P1;SDS_P2;PMS_P1;PMS_P2;Temp;Humidity;BMP_temperature;BMP_pressure;BME280_temperature;BME280_humidity;BME280_pressure;Samples;Min_cycle;Max_cycle;Signal;HPM_P1;HPM_P2
2022/08/21 00:01:37;;;;;;;10.98;4.20;;;19.80;62.70;;;;;;9183840;19;20011;-71
2022/08/21 00:04:42;;;;;;;11.10;3.80;;;19.70;62.10;;;;;;9179875;19;20480;-72
2022/08/21 00:08:01;;;;;;;10.63;4.15;;;19.70;62.20;;;;;;9182342;19;20022;-70
2022/08/21 00:11:07;;;;;;;14.95;4.18;;;19.60;62.30;;;;;;9183556;19;20371;-71
2022/08/21 00:14:16;;;;;;;15.40;3.30;;;19.50;62.30;;;;;;9183163;19;20014;-71
2022/08/21 00:17:21;;;;;;;8.98;4.03;;;19.40;62.40;;;;;;9182733;19;20049;-71
2022/08/21 00:20:27;;;;;;;9.60;4.20;;;19.40;62.50;;;;;;9182646;19;20018;-71
2022/08/21 00:23:33;;;;;;;9.35;3.55;;;19.30;63.30;;;;;;9181439;19;20022;-71
2022/08/21 00:26:38;;;;;;;9.40;3.88;;;19.30;62.80;;;;;;9182853;19;20701;-71
2022/08/21 00:29:46;;;;;;;9.38;3.90;;;19.30;62.90;;;;;;9181598;19;20011;-70
2022/08/21 00:32:51;;;;;;;17.05;5.57;;;19.20;63.00;;;;;;9181806;19;20015;-71
2022/08/21 00:35:57;;;;;;;15.25;4.40;;;19.10;63.00;;;;;;9183778;19;20014;-72
2022/08/21 00:39:02;;;;;;;11.10;3.97;;;19.10;63.20;;;;;;9182634;19;20019;-71
2022/08/21 00:42:07;;;;;;;11.82;3.85;;;19.10;63.40;;;;;;9183754;19;20014;-70
2022/08/21 00:45:15;;;;;;;10.55;4.38;;;19.00;63.40;;;;;;9183578;19;21477;-72
2022/08/21 00:48:20;;;;;;;9.57;4.95;;;19.00;63.60;;;;;;9183380;19;20015;-71
2022/08/21 00:51:30;;;;;;;14.18;4.57;;;18.90;63.70;;;;;;9184178;19;20017;-71
2022/08/21 00:54:43;;;;;;;8.65;4.30;;;18.90;63.80;;;;;;9182962;19;20006;-70
2022/08/21 00:57:54;;;;;;;13.50;4.88;;;18.90;63.90;;;;;;9182130;19;20041;-70
2022/08/21 01:01:03;;;;;;;16.15;5.47;;;18.80;63.90;;;;;;9181237;19;20013;-72
2022/08/21 01:04:13;;;;;;;10.60;4.15;;;18.80;64.00;;;;;;9178152;19;20018;-71
2022/08/21 01:07:19;;;;;;;13.50;4.82;;;18.80;64.00;;;;;;9179690;19;20461;-69
2022/08/21 01:10:26;;;;;;;10.85;3.90;;;18.70;64.00;;;;;;9182600;19;20018;-71
2022/08/21 01:13:37;;;;;;;8.20;4.15;;;18.70;64.10;;;;;;9182036;19;20026;-71
2022/08/21 01:16:47;;;;;;;11.90;4.40;;;18.70;64.20;;;;;;9182361;19;20024;-71
2022/08/21 01:19:52;;;;;;;8.93;4.15;;;18.70;64.30;;;;;;9182940;19;20013;-71
2022/08/21 01:23:00;;;;;;;9.63;3.85;;;18.60;64.20;;;;;;9181086;19;20025;-71
2022/08/21 01:26:07;;;;;;;9.85;4.70;;;18.60;64.40;;;;;;9180012;19;20025;-71
2022/08/21 01:29:17;;;;;;;13.05;4.18;;;18.50;64.30;;;;;;9181676;19;20014;-71
2022/08/21 01:32:22;;;;;;;13.05;4.75;;;18.50;64.40;;;;;;9181196;19;20468;-70
2022/08/21 01:35:28;;;;;;;12.38;4.45;;;18.50;64.50;;;;;;9181823;19;20025;-72
2022/08/21 01:38:35;;;;;;;9.80;4.15;;;18.40;64.50;;;;;;9181304;19;20015;-71
2022/08/21 01:41:40;;;;;;;9.52;4.35;;;18.40;64.60;;;;;;9180767;19;20015;-71
2022/08/21 01:44:46;;;;;;;9.30;4.63;;;18.40;64.70;;;;;;9176651;19;20021;-70
2022/08/21 01:47:53;;;;;;;8.70;4.18;;;18.30;64.70;;;;;;9180930;19;20011;-72
2022/08/21 01:50:58;;;;;;;12.05;4.40;;;18.30;64.70;;;;;;9181235;19;20460;-71
2022/08/21 01:54:06;;;;;;;17.17;4.70;;;18.20;64.80;;;;;;9181747;19;20018;-71
2022/08/21 01:57:12;;;;;;;8.75;4.95;;;18.20;64.90;;;;;;9180838;19;20245;-70
2022/08/21 02:00:19;;;;;;;11.35;5.00;;;18.20;65.00;;;;;;9180546;19;20018;-71
2022/08/21 02:03:25;;;;;;;9.18;5.00;;;18.10;65.00;;;;;;9180067;19;20352;-72
2022/08/21 02:06:40;;;;;;;10.40;4.85;;;18.10;65.00;;;;;;9176704;19;20018;-71
2022/08/21 02:09:48;;;;;;;7.80;4.10;;;18.10;65.10;;;;;;9180433;19;20010;-72
2022/08/21 02:12:53;;;;;;;18.67;6.32;;;18.10;65.30;;;;;;9177368;19;20595;-71
2022/08/21 02:15:58;;;;;;;10.02;4.75;;;18.00;65.20;;;;;;9175979;19;20115;-71
2022/08/21 02:19:03;;;;;;;10.05;4.30;;;18.00;65.30;;;;;;9179367;19;20014;-72
2022/08/21 02:22:09;;;;;;;13.90;4.85;;;17.90;65.30;;;;;;9178863;19;20375;-69
2022/08/21 02:25:17;;;;;;;12.57;4.72;;;17.90;65.40;;;;;;9176714;19;20026;-68
2022/08/21 02:28:21;;;;;;;13.23;4.15;;;17.80;65.50;;;;;;9178359;19;20360;-71
2022/08/21 02:31:27;;;;;;;9.43;4.78;;;17.80;65.40;;;;;;9177650;19;20114;-69
2022/08/21 02:34:32;;;;;;;11.65;4.68;;;17.80;65.50;;;;;;9178563;19;20483;-70
2022/08/21 02:37:37;;;;;;;14.65;5.50;;;17.70;65.60;;;;;;9177988;19;20023;-70
2022/08/21 02:40:47;;;;;;;15.15;5.28;;;17.70;65.60;;;;;;9175475;19;20006;-71
2022/08/21 02:43:55;;;;;;;9.15;4.82;;;17.70;65.80;;;;;;9176798;19;20426;-71
2022/08/21 02:47:00;;;;;;;11.90;5.38;;;17.60;65.70;;;;;;9176812;19;20022;-69
2022/08/21 02:50:06;;;;;;;12.52;5.05;;;17.50;65.70;;;;;;9176101;19;20014;-71
2022/08/21 02:53:16;;;;;;;17.38;5.70;;;17.50;65.80;;;;;;9176851;19;20545;-71
2022/08/21 02:56:24;;;;;;;8.38;5.00;;;17.50;65.90;;;;;;9176517;19;20026;-70
2022/08/21 02:59:35;;;;;;;14.68;5.25;;;17.50;66.00;;;;;;9177656;19;20116;-70
2022/08/21 03:02:40;;;;;;;13.30;4.80;;;17.40;66.00;;;;;;9178032;19;20018;-71
2022/08/21 03:05:46;;;;;;;9.23;5.00;;;17.40;66.10;;;;;;9174030;19;20042;-71
2022/08/21 03:08:51;;;;;;;10.75;5.07;;;17.30;66.10;;;;;;9177668;19;20476;-71
2022/08/21 03:11:59;;;;;;;14.88;4.80;;;17.30;66.20;;;;;;9177301;19;20014;-70
2022/08/21 03:15:04;;;;;;;8.93;4.18;;;17.20;66.30;;;;;;9175759;19;20049;-70
2022/08/21 03:18:11;;;;;;;13.85;5.20;;;17.20;66.30;;;;;;9177340;19;20514;-70
2022/08/21 03:21:18;;;;;;;14.77;5.15;;;17.10;66.30;;;;;;9178280;19;20010;-70
2022/08/21 03:24:24;;;;;;;11.80;5.30;;;17.10;66.40;;;;;;9180038;19;20015;-71
2022/08/21 03:27:33;;;;;;;11.98;4.93;;;17.10;66.50;;;;;;9185712;19;20495;-70
2022/08/21 03:30:39;;;;;;;8.23;4.70;;;17.00;66.60;;;;;;9185826;19;20021;-70
2022/08/21 03:33:44;;;;;;;8.10;4.22;;;17.00;66.60;;;;;;9185695;19;20010;-69
2022/08/21 03:36:49;;;;;;;8.35;4.40;;;17.00;66.60;;;;;;9185299;19;20019;-69
2022/08/21 03:39:54;;;;;;;8.75;4.05;;;16.90;66.60;;;;;;9184134;19;20475;-70
2022/08/21 03:43:02;;;;;;;7.40;4.25;;;16.90;66.70;;;;;;9186388;19;20074;-69
2022/08/21 03:46:08;;;;;;;8.73;4.22;;;16.90;66.80;;;;;;9184318;19;20412;-71
2022/08/21 03:49:13;;;;;;;6.97;4.07;;;16.90;66.80;;;;;;9185352;19;20033;-70
2022/08/21 03:52:18;;;;;;;10.13;4.70;;;16.80;66.80;;;;;;9185580;19;20018;-71
2022/08/21 03:55:23;;;;;;;8.38;4.40;;;16.80;66.90;;;;;;9185109;19;20019;-71
2022/08/21 03:58:31;;;;;;;8.15;4.15;;;16.80;66.90;;;;;;9185938;19;20018;-70
2022/08/21 04:01:36;;;;;;;10.38;4.90;;;16.70;67.00;;;;;;9186002;19;20014;-70
2022/08/21 04:04:42;;;;;;;8.35;4.47;;;16.70;67.00;;;;;;9179612;19;20098;-69
2022/08/21 04:07:47;;;;;;;7.57;4.57;;;16.70;67.10;;;;;;9182738;19;20029;-70
2022/08/21 04:10:54;;;;;;;10.32;4.60;;;16.70;67.10;;;;;;9184907;19;20401;-70
2022/08/21 04:14:02;;;;;;;7.15;4.38;;;16.60;67.10;;;;;;9184730;19;20363;-70
2022/08/21 04:17:07;;;;;;;6.53;4.25;;;16.60;67.20;;;;;;9183994;19;20019;-70
2022/08/21 04:20:12;;;;;;;9.05;4.85;;;16.60;67.20;;;;;;9184353;19;20011;-70
2022/08/21 04:23:20;;;;;;;11.68;5.45;;;16.60;67.30;;;;;;9183898;19;20564;-70
2022/08/21 04:26:28;;;;;;;9.35;5.00;;;16.50;67.30;;;;;;9183889;19;20018;-70
2022/08/21 04:29:36;;;;;;;9.75;4.93;;;16.50;67.40;;;;;;9184169;19;20015;-70
2022/08/21 04:32:45;;;;;;;10.98;5.13;;;16.50;67.50;;;;;;9183498;19;20014;-70
2022/08/21 04:35:50;;;;;;;10.07;5.25;;;16.40;67.40;;;;;;9181644;19;20019;-70
2022/08/21 04:38:55;;;;;;;8.77;4.95;;;16.40;67.50;;;;;;9182497;19;20022;-70
2022/08/21 04:42:01;;;;;;;13.05;5.28;;;16.40;67.50;;;;;;9184407;19;20336;-70
2022/08/21 04:45:09;;;;;;;10.52;5.50;;;16.40;67.60;;;;;;9182178;19;20010;-70
2022/08/21 04:48:15;;;;;;;9.98;5.60;;;16.40;67.70;;;;;;9183339;19;20025;-70
2022/08/21 04:51:25;;;;;;;9.30;5.15;;;16.40;67.80;;;;;;9180298;19;20022;-70
2022/08/21 04:54:31;;;;;;;8.60;4.80;;;16.30;67.80;;;;;;9183057;19;20047;-70
2022/08/21 04:57:36;;;;;;;12.13;5.30;;;16.30;67.80;;;;;;9183324;19;20380;-69
2022/08/21 05:00:58;;;;;;;12.80;5.03;;;16.30;67.90;;;;;;9183142;19;20081;-72
2022/08/21 05:04:06;;;;;;;13.45;4.93;;;16.30;68.00;;;;;;9180308;19;20379;-69
2022/08/21 05:07:17;;;;;;;19.95;6.53;;;16.30;68.00;;;;;;9179105;19;20029;-72
2022/08/21 05:10:42;;;;;;;12.68;5.43;;;16.20;68.10;;;;;;9183661;19;20487;-70
2022/08/21 05:13:48;;;;;;;14.15;5.53;;;16.20;68.10;;;;;;9182484;19;20011;-72
2022/08/21 05:17:02;;;;;;;11.45;5.75;;;16.20;68.10;;;;;;9181552;19;20053;-69
2022/08/21 05:20:08;;;;;;;11.02;5.55;;;16.20;68.30;;;;;;9182311;19;20471;-69
2022/08/21 05:23:16;;;;;;;13.15;5.18;;;16.20;68.30;;;;;;9181908;19;20010;-71
2022/08/21 05:26:21;;;;;;;11.98;6.47;;;16.20;68.40;;;;;;9180176;19;20491;-70
2022/08/21 05:29:25;;;;;;;12.70;6.78;;;16.20;68.50;;;;;;9181126;19;20831;-70
2022/08/21 05:32:33;;;;;;;15.02;6.72;;;16.20;68.60;;;;;;9181707;19;20115;-71
2022/08/21 05:35:40;;;;;;;11.48;7.07;;;16.20;68.70;;;;;;9182297;19;20025;-70
2022/08/21 05:38:45;;;;;;;11.48;7.07;;;16.20;68.70;;;;;;9181058;19;20635;-70
2022/08/21 05:41:50;;;;;;;21.85;7.85;;;16.30;68.80;;;;;;9181555;19;20509;-72
2022/08/21 05:44:55;;;;;;;12.23;6.93;;;16.30;68.90;;;;;;9179274;19;20368;-71
2022/08/21 05:48:08;;;;;;;18.75;7.20;;;16.30;69.00;;;;;;9179845;19;20018;-70
2022/08/21 05:51:16;;;;;;;15.50;7.60;;;16.30;69.20;;;;;;9180434;19;20476;-71
2022/08/21 05:54:21;;;;;;;17.13;7.82;;;16.30;69.20;;;;;;9178937;19;20019;-69
2022/08/21 05:57:26;;;;;;;14.13;7.60;;;16.40;69.30;;;;;;9180213;19;20459;-70
2022/08/21 06:00:31;;;;;;;16.33;7.00;;;16.40;69.30;;;;;;9180226;19;20030;-70
2022/08/21 06:03:42;;;;;;;14.32;7.22;;;16.50;69.40;;;;;;9178095;19;20019;-72
2022/08/21 06:06:47;;;;;;;18.42;7.72;;;16.60;69.60;;;;;;9172966;19;20010;-71
2022/08/21 06:09:52;;;;;;;12.48;7.13;;;16.70;69.60;;;;;;9179995;19;20018;-69
2022/08/21 06:12:57;;;;;;;16.38;6.78;;;16.80;69.70;;;;;;9179652;19;20018;-71
2022/08/21 06:16:08;;;;;;;14.13;7.43;;;16.90;69.70;;;;;;9179699;19;20015;-70
2022/08/21 06:19:16;;;;;;;12.52;7.43;;;17.00;69.80;;;;;;9179980;19;20014;-70
2022/08/21 06:22:21;;;;;;;14.50;8.10;;;17.10;69.90;;;;;;9179419;19;20023;-71
2022/08/21 06:25:27;;;;;;;15.30;6.55;;;17.30;69.80;;;;;;9177432;19;20014;-72
2022/08/21 06:28:32;;;;;;;15.10;7.07;;;17.40;69.80;;;;;;9179630;19;20078;-72
2022/08/21 06:31:37;;;;;;;13.27;6.88;;;17.60;69.80;;;;;;9178724;19;20026;-70
2022/08/21 06:34:45;;;;;;;12.15;6.90;;;17.80;69.90;;;;;;9179812;19;20021;-70
2022/08/21 06:37:50;;;;;;;9.48;5.57;;;17.90;69.80;;;;;;9177339;19;20526;-70
2022/08/21 06:40:55;;;;;;;9.32;5.88;;;18.10;69.70;;;;;;9175407;19;20185;-70
2022/08/21 06:44:01;;;;;;;12.80;5.97;;;18.30;69.70;;;;;;9176713;19;20022;-69
2022/08/21 06:47:07;;;;;;;14.55;6.25;;;18.50;69.60;;;;;;9176589;19;20373;-70
2022/08/21 06:50:14;;;;;;;9.90;5.18;;;18.70;69.50;;;;;;9178923;19;20094;-70
2022/08/21 06:53:21;;;;;;;15.23;5.53;;;18.90;69.50;;;;;;9177915;19;20041;-70
2022/08/21 06:56:26;;;;;;;11.60;5.13;;;19.10;69.40;;;;;;9178251;19;20010;-70
2022/08/21 06:59:31;;;;;;;11.13;4.78;;;19.20;69.30;;;;;;9185735;19;20015;-71
2022/08/21 07:02:36;;;;;;;11.50;4.93;;;19.40;69.10;;;;;;9188109;19;20060;-70
2022/08/21 07:05:48;;;;;;;12.52;4.57;;;19.60;68.90;;;;;;9182179;19;20048;-70
2022/08/21 07:08:53;;;;;;;9.80;4.53;;;19.80;68.70;;;;;;9186752;19;20014;-71
2022/08/21 07:12:02;;;;;;;10.05;4.72;;;20.00;68.50;;;;;;9186352;19;20022;-71
2022/08/21 07:15:09;;;;;;;12.57;5.10;;;20.20;68.30;;;;;;9186235;19;20023;-70
2022/08/21 07:18:14;;;;;;;12.60;4.45;;;20.40;68.10;;;;;;9186562;19;20014;-71
2022/08/21 07:21:22;;;;;;;9.70;3.90;;;20.60;67.90;;;;;;9186873;19;20014;-70
2022/08/21 07:24:30;;;;;;;8.35;4.38;;;20.70;67.60;;;;;;9187435;19;20022;-68
2022/08/21 07:27:35;;;;;;;8.13;4.28;;;20.90;67.40;;;;;;9183948;19;20010;-66
2022/08/21 07:30:40;;;;;;;10.20;4.35;;;21.00;67.20;;;;;;9186551;19;20019;-67
2022/08/21 07:33:46;;;;;;;9.45;4.45;;;21.10;67.00;;;;;;9183210;19;20752;-64
2022/08/21 07:36:53;;;;;;;10.70;4.47;;;21.30;67.00;;;;;;9179964;19;20007;-67
2022/08/21 07:39:58;;;;;;;8.25;4.05;;;21.40;66.90;;;;;;9176269;19;20030;-65
2022/08/21 07:43:04;;;;;;;10.18;4.05;;;21.50;66.70;;;;;;9180571;19;20584;-68
2022/08/21 07:46:09;;;;;;;8.35;4.22;;;21.70;66.60;;;;;;9175334;19;20014;-67
2022/08/21 07:49:13;;;;;;;10.52;3.58;;;21.80;66.40;;;;;;9179739;19;20026;-67
2022/08/21 07:52:21;;;;;;;11.90;3.75;;;21.90;66.30;;;;;;9179524;19;20022;-68
2022/08/21 07:55:26;;;;;;;9.85;3.60;;;22.10;66.00;;;;;;9180193;19;20028;-67
2022/08/21 07:58:31;;;;;;;11.20;4.28;;;22.20;65.80;;;;;;9178208;19;20599;-67
2022/08/21 08:01:37;;;;;;;8.48;3.78;;;22.30;65.60;;;;;;9178569;19;20045;-66
2022/08/21 08:04:42;;;;;;;16.75;3.53;;;22.50;65.50;;;;;;9167684;19;20141;-68
2022/08/21 08:07:58;;;;;;;10.98;3.53;;;22.60;65.30;;;;;;9166834;19;20033;-70
2022/08/21 08:11:03;;;;;;;11.40;3.72;;;22.70;65.10;;;;;;9165246;19;20022;-68
2022/08/21 08:14:09;;;;;;;12.25;3.60;;;22.80;64.90;;;;;;9171575;19;20025;-69
2022/08/21 08:17:14;;;;;;;11.13;3.17;;;23.00;64.80;;;;;;9172612;19;20022;-67
2022/08/21 08:20:21;;;;;;;8.70;2.88;;;23.10;64.50;;;;;;9170785;19;20018;-69
2022/08/21 08:23:30;;;;;;;9.82;2.70;;;23.20;64.30;;;;;;9172468;19;20778;-68
2022/08/21 08:26:35;;;;;;;12.68;3.63;;;23.40;64.20;;;;;;9172015;19;20014;-69
2022/08/21 08:29:40;;;;;;;7.50;3.33;;;23.40;63.90;;;;;;9173091;19;20022;-68
2022/08/21 08:32:45;;;;;;;14.75;3.67;;;23.60;63.90;;;;;;9173105;19;20037;-69
2022/08/21 08:35:52;;;;;;;14.60;3.47;;;23.70;63.50;;;;;;9173310;19;20018;-69
2022/08/21 08:39:00;;;;;;;9.80;3.25;;;23.90;63.20;;;;;;9177728;19;20022;-67
2022/08/21 08:42:10;;;;;;;10.63;2.92;;;24.00;63.00;;;;;;9176246;19;20068;-67
2022/08/21 08:45:42;;;;;;;6.18;3.05;;;24.10;62.70;;;;;;9168975;19;20022;-65
2022/08/21 08:48:54;;;;;;;11.50;3.33;;;24.30;62.50;;;;;;9170088;19;20018;-65
2022/08/21 08:52:03;;;;;;;12.52;3.85;;;24.50;62.30;;;;;;9173311;19;20031;-69
2022/08/21 08:55:16;;;;;;;10.75;3.63;;;24.60;62.10;;;;;;9176952;19;20793;-69
2022/08/21 08:58:25;;;;;;;9.82;3.65;;;24.80;61.80;;;;;;9174062;19;20024;-67
2022/08/21 09:01:30;;;;;;;8.13;3.50;;;25.00;61.70;;;;;;9175506;19;20010;-68
2022/08/21 09:04:44;;;;;;;9.45;3.00;;;25.10;61.50;;;;;;9171263;19;20014;-68
2022/08/21 09:08:02;;;;;;;7.50;2.85;;;25.30;61.30;;;;;;9172654;19;20014;-68
2022/08/21 09:11:17;;;;;;;8.70;3.58;;;25.40;61.00;;;;;;9174359;19;20025;-66
2022/08/21 09:14:33;;;;;;;8.15;2.60;;;25.60;60.80;;;;;;9176472;19;20018;-68
2022/08/21 09:17:51;;;;;;;10.30;2.95;;;25.70;60.60;;;;;;9171067;19;20019;-66
2022/08/21 09:21:11;;;;;;;10.93;3.33;;;25.90;60.40;;;;;;9173392;19;20022;-69
2022/08/21 09:24:29;;;;;;;6.80;2.75;;;26.00;60.00;;;;;;9171885;19;20015;-69
2022/08/21 09:27:37;;;;;;;13.02;2.80;;;26.20;59.80;;;;;;9170936;19;20025;-66
2022/08/21 09:30:43;;;;;;;9.82;2.42;;;26.30;59.70;;;;;;9172725;19;20014;-67
2022/08/21 09:33:48;;;;;;;9.02;2.63;;;26.40;59.40;;;;;;9173952;19;20373;-69
2022/08/21 09:36:53;;;;;;;10.63;2.72;;;26.50;59.20;;;;;;9172433;19;20763;-67
2022/08/21 09:40:00;;;;;;;13.90;3.75;;;26.60;59.00;;;;;;9172036;19;20487;-68
2022/08/21 09:43:18;;;;;;;10.80;3.22;;;26.70;58.80;;;;;;9174275;19;20057;-68
2022/08/21 09:46:26;;;;;;;8.93;2.92;;;26.80;58.60;;;;;;9172515;19;20026;-68
2022/08/21 09:49:32;;;;;;;11.05;2.85;;;26.80;58.50;;;;;;9175048;19;20120;-69
2022/08/21 09:52:37;;;;;;;10.40;2.33;;;26.90;58.40;;;;;;9174959;19;20105;-67
2022/08/21 09:59:23;;;;;;;7.20;2.28;;;27.20;57.90;;;;;;9171050;19;20138;-67
2022/08/21 10:02:31;;;;;;;11.07;2.58;;;27.30;57.90;;;;;;9173876;19;20057;-67
2022/08/21 10:05:36;;;;;;;4.72;2.35;;;27.40;57.70;;;;;;9169531;19;20018;-68
2022/08/21 10:08:43;;;;;;;7.93;3.03;;;27.50;57.60;;;;;;9167963;19;20490;-66
2022/08/21 10:11:55;;;;;;;11.05;2.90;;;27.60;57.20;;;;;;9173538;19;20022;-67
2022/08/21 10:15:13;;;;;;;11.00;4.07;;;27.70;56.90;;;;;;9173029;19;20018;-67
2022/08/21 10:18:27;;;;;;;11.95;2.70;;;27.80;57.00;;;;;;9172560;19;20018;-68
2022/08/21 10:21:34;;;;;;;;;;;27.80;56.50;;;;;;9173698;19;20014;-67
2022/08/21 10:24:55;;;;;;;10.13;3.30;;;27.90;56.90;;;;;;9173426;19;20014;-68
2022/08/21 10:28:08;;;;;;;10.25;2.80;;;28.00;56.70;;;;;;9168836;19;20963;-67
2022/08/21 10:31:30;;;;;;;8.05;2.45;;;28.10;56.50;;;;;;9173473;19;20011;-69
2022/08/21 10:34:44;;;;;;;11.88;2.88;;;28.10;56.70;;;;;;9170122;19;20019;-68
2022/08/21 10:38:02;;;;;;;;;;;28.20;56.00;;;;;;9172745;19;20018;-67
2022/08/21 10:41:17;;;;;;;6.43;2.38;;;28.20;56.30;;;;;;9168540;19;19934;-68
2022/08/21 10:44:31;;;;;;;7.68;2.20;;;28.30;56.10;;;;;;9171839;19;20014;-70
2022/08/21 10:47:45;;;;;;;6.75;2.17;;;28.30;55.80;;;;;;9171623;19;20392;-70
2022/08/21 10:50:54;;;;;;;13.53;2.80;;;28.30;55.60;;;;;;9171759;19;20023;-68
2022/08/21 10:54:07;;;;;;;10.85;2.20;;;28.30;55.60;;;;;;9172497;19;21043;-68
2022/08/21 10:57:18;;;;;;;6.15;1.75;;;28.30;55.40;;;;;;9170164;19;20022;-66
2022/08/21 11:00:41;;;;;;;5.18;1.80;;;28.30;55.30;;;;;;9171755;19;20110;-69
2022/08/21 11:03:56;;;;;;;5.13;1.70;;;28.30;55.40;;;;;;9173543;19;20011;-69
2022/08/21 11:07:11;;;;;;;11.88;1.85;;;28.30;55.00;;;;;;9167024;19;20010;-69
2022/08/21 11:10:26;;;;;;;9.98;2.15;;;28.50;55.10;;;;;;9173014;19;20014;-69
2022/08/21 11:13:39;;;;;;;10.52;2.10;;;28.50;54.80;;;;;;9173727;19;20495;-71
2022/08/21 11:16:50;;;;;;;8.30;2.20;;;28.60;54.60;;;;;;9178911;19;20010;-71
2022/08/21 11:20:05;;;;;;;9.40;1.73;;;28.60;54.40;;;;;;9176606;19;20475;-70
2022/08/21 11:23:19;;;;;;;4.72;1.40;;;28.70;54.10;;;;;;9177070;19;20113;-71
2022/08/21 11:26:33;;;;;;;7.63;1.85;;;28.70;54.00;;;;;;9176757;19;20010;-71
2022/08/21 11:29:41;;;;;;;5.07;1.50;;;28.80;54.10;;;;;;9176269;19;20118;-73
2022/08/21 11:33:01;;;;;;;5.47;1.48;;;28.80;54.00;;;;;;9175516;19;20053;-70
2022/08/21 11:36:17;;;;;;;6.07;1.75;;;28.90;53.70;;;;;;9176134;19;20015;-71
2022/08/21 11:39:28;;;;;;;12.55;2.28;;;29.00;53.60;;;;;;9174340;19;20011;-71
2022/08/21 11:42:40;;;;;;;6.47;1.70;;;29.00;53.50;;;;;;9176236;19;20026;-70
2022/08/21 11:45:49;;;;;;;3.60;1.10;;;29.10;53.30;;;;;;9183667;19;20033;-70
2022/08/21 11:49:15;;;;;;;4.97;1.27;;;29.10;53.20;;;;;;9183050;19;20017;-70
2022/08/21 11:52:26;;;;;;;6.20;1.70;;;29.20;53.40;;;;;;9186411;19;20047;-72
2022/08/21 11:55:35;;;;;;;4.38;1.73;;;29.20;52.90;;;;;;9186851;19;20014;-71
2022/08/21 11:58:44;;;;;;;7.20;1.65;;;29.20;52.80;;;;;;9186504;19;20479;-70
2022/08/21 12:01:52;;;;;;;8.27;1.70;;;29.20;52.60;;;;;;9186842;19;20479;-74
2022/08/21 12:05:02;;;;;;;4.45;1.17;;;29.20;52.50;;;;;;9183090;19;20463;-71
2022/08/21 12:08:29;;;;;;;6.22;1.30;;;29.20;52.40;;;;;;9184641;19;20010;-72
2022/08/21 12:11:34;;;;;;;6.10;1.60;;;29.20;52.80;;;;;;9186554;19;20043;-71
2022/08/21 12:14:44;;;;;;;5.70;1.50;;;29.30;52.40;;;;;;9184154;19;20017;-71
2022/08/21 12:18:00;;;;;;;4.90;1.25;;;29.30;52.20;;;;;;9186304;19;20475;-72
2022/08/21 12:21:19;;;;;;;7.28;1.40;;;29.30;51.90;;;;;;9185587;19;20523;-72
2022/08/21 12:24:38;;;;;;;7.97;1.38;;;29.20;51.90;;;;;;9186272;19;20472;-71
2022/08/21 12:27:50;;;;;;;6.28;1.20;;;29.20;51.60;;;;;;9185202;19;20021;-71
2022/08/21 12:30:55;;;;;;;5.07;1.90;;;29.20;51.70;;;;;;9185747;19;20015;-70
2022/08/21 12:34:05;;;;;;;9.75;1.60;;;29.10;51.70;;;;;;9185110;19;20019;-70
2022/08/21 12:37:24;;;;;;;7.72;1.77;;;29.00;52.20;;;;;;9185189;19;20010;-71
2022/08/21 12:40:39;;;;;;;8.98;1.48;;;29.00;51.50;;;;;;9182486;19;20101;-71
2022/08/21 12:43:46;;;;;;;9.07;1.70;;;28.90;51.60;;;;;;9184681;19;20018;-71
2022/08/21 12:46:55;;;;;;;6.72;1.70;;;28.80;51.60;;;;;;9183462;19;20010;-71
2022/08/21 12:50:05;;;;;;;7.25;1.55;;;28.80;51.60;;;;;;9182223;19;20413;-71
2022/08/21 12:53:14;;;;;;;8.05;1.65;;;28.70;51.50;;;;;;9183126;19;20011;-71
2022/08/21 12:56:28;;;;;;;;;;;28.70;51.70;;;;;;9184387;19;20018;-71
2022/08/21 12:59:35;;;;;;;6.85;1.77;;;28.60;51.90;;;;;;9182131;19;19933;-71
2022/08/21 13:02:44;;;;;;;4.53;1.55;;;28.60;51.90;;;;;;9181639;19;20034;-72
2022/08/21 13:05:51;;;;;;;6.15;1.65;;;28.70;51.80;;;;;;9179179;19;20014;-72
2022/08/21 13:09:01;;;;;;;7.13;1.50;;;28.70;51.70;;;;;;9183028;19;20471;-71
2022/08/21 13:12:11;;;;;;;5.88;1.50;;;28.70;51.60;;;;;;9183134;19;20027;-69
2022/08/21 13:15:17;;;;;;;7.68;2.13;;;28.70;51.40;;;;;;9181370;19;20022;-71
2022/08/21 13:18:29;;;;;;;11.10;1.77;;;28.70;51.40;;;;;;9181125;19;20078;-72
2022/08/21 13:21:41;;;;;;;6.53;1.60;;;28.80;51.30;;;;;;9183773;19;20018;-71
2022/08/21 13:24:50;;;;;;;7.57;1.75;;;28.80;51.20;;;;;;9181983;19;20018;-71
2022/08/21 13:28:08;;;;;;;8.23;1.42;;;28.80;51.10;;;;;;9183213;19;20047;-71
2022/08/21 13:31:13;;;;;;;5.28;1.23;;;28.80;50.90;;;;;;9183008;19;20353;-70
2022/08/21 13:34:20;;;;;;;6.40;1.42;;;28.70;51.10;;;;;;9182499;19;20372;-71
2022/08/21 13:37:28;;;;;;;9.52;1.40;;;28.70;51.00;;;;;;9183247;19;20789;-71
2022/08/21 13:40:41;;;;;;;8.20;1.65;;;28.60;51.00;;;;;;9178447;19;20026;-71
2022/08/21 13:43:52;;;;;;;5.38;1.80;;;28.60;51.00;;;;;;9182648;19;20015;-72
2022/08/21 13:46:57;;;;;;;6.72;1.60;;;28.60;51.50;;;;;;9182569;19;20014;-70
2022/08/21 13:50:02;;;;;;;7.60;1.58;;;28.50;50.90;;;;;;9180173;19;20023;-71
2022/08/21 13:53:22;;;;;;;9.13;2.38;;;28.50;50.80;;;;;;9181692;19;20356;-69
2022/08/21 13:56:29;;;;;;;7.40;1.30;;;28.50;50.80;;;;;;9181127;19;20078;-71
2022/08/21 13:59:38;;;;;;;9.05;1.40;;;28.40;50.80;;;;;;9179000;19;20029;-66
2022/08/21 14:02:47;;;;;;;4.68;1.55;;;28.40;50.70;;;;;;9174216;19;20022;-68
2022/08/21 14:05:52;;;;;;;7.18;1.40;;;28.40;50.70;;;;;;9170318;19;20023;-68
2022/08/21 14:09:01;;;;;;;3.92;1.40;;;28.30;50.50;;;;;;9171479;19;20021;-68
2022/08/21 14:12:20;;;;;;;5.53;1.27;;;28.30;50.40;;;;;;9170811;19;20018;-66
2022/08/21 14:15:32;;;;;;;6.75;1.80;;;28.30;50.10;;;;;;9172988;19;20070;-65
2022/08/21 14:18:46;;;;;;;3.97;1.20;;;28.30;50.20;;;;;;9174126;19;20026;-66
2022/08/21 14:21:51;;;;;;;6.90;1.58;;;28.40;50.10;;;;;;9174011;19;20491;-66
2022/08/21 14:25:02;;;;;;;4.88;1.30;;;28.40;50.10;;;;;;9173628;19;20472;-68
2022/08/21 14:28:22;;;;;;;7.53;1.50;;;28.40;50.00;;;;;;9171340;19;20510;-66
2022/08/21 14:31:35;;;;;;;;;;;28.40;49.90;;;;;;9174876;19;20018;-67
2022/08/21 14:34:46;;;;;;;3.50;1.20;;;28.40;50.20;;;;;;9172372;19;19994;-68
2022/08/21 14:37:52;;;;;;;5.00;1.52;;;28.40;50.20;;;;;;9170216;19;21723;-69
2022/08/21 14:41:02;;;;;;;5.75;1.58;;;28.30;50.00;;;;;;9165869;19;20052;-69
2022/08/21 14:44:09;;;;;;;6.45;1.73;;;28.30;50.00;;;;;;9168693;19;20054;-65
2022/08/21 14:47:17;;;;;;;7.85;2.05;;;28.20;49.90;;;;;;9164141;19;20025;-66
2022/08/21 14:50:22;;;;;;;4.30;1.67;;;28.10;49.90;;;;;;9169338;19;20029;-67
2022/08/21 14:53:31;;;;;;;5.00;1.30;;;28.10;49.90;;;;;;9173839;19;20676;-67
2022/08/21 14:56:38;;;;;;;6.63;1.60;;;28.00;49.90;;;;;;9173625;19;20053;-67
2022/08/21 14:59:43;;;;;;;11.23;1.80;;;27.90;49.90;;;;;;9166441;19;20018;-67
2022/08/21 15:02:51;;;;;;;7.10;1.70;;;27.80;50.10;;;;;;9169334;19;20017;-67
2022/08/21 15:05:56;;;;;;;2.22;1.10;;;27.80;50.00;;;;;;9168530;19;20015;-68
2022/08/21 15:09:03;;;;;;;7.45;1.70;;;27.70;50.00;;;;;;9170412;19;20030;-67
2022/08/21 15:12:10;;;;;;;7.22;1.35;;;27.70;50.10;;;;;;9171357;19;20126;-64
2022/08/21 15:15:15;;;;;;;7.45;1.40;;;27.60;50.00;;;;;;9170113;19;20014;-66
2022/08/21 15:18:26;;;;;;;7.80;1.85;;;27.60;50.10;;;;;;9171503;19;20026;-67
2022/08/21 15:21:31;;;;;;;8.20;1.42;;;27.50;50.10;;;;;;9181390;19;20023;-68
2022/08/21 15:24:36;;;;;;;6.78;1.73;;;27.50;50.20;;;;;;9178610;19;20023;-70
2022/08/21 15:27:41;;;;;;;3.22;1.55;;;27.40;50.20;;;;;;9179236;19;20018;-68
2022/08/21 15:30:47;;;;;;;5.68;1.60;;;27.30;50.20;;;;;;9177512;19;20388;-65
2022/08/21 15:33:55;;;;;;;4.85;1.80;;;27.20;50.30;;;;;;9180274;19;20014;-66
2022/08/21 15:37:00;;;;;;;9.45;1.98;;;27.20;50.30;;;;;;9176354;19;20379;-68
2022/08/21 15:40:07;;;;;;;11.80;2.00;;;27.20;50.50;;;;;;9176577;19;20015;-66
2022/08/21 15:43:26;;;;;;;6.13;2.00;;;27.10;50.50;;;;;;9173031;19;20015;-67
2022/08/21 15:46:34;;;;;;;4.72;1.65;;;27.10;50.50;;;;;;9177885;19;20037;-66
2022/08/21 15:49:44;;;;;;;8.25;2.10;;;27.10;50.70;;;;;;9180428;19;20014;-67
2022/08/21 15:52:49;;;;;;;5.43;1.75;;;27.10;50.80;;;;;;9175344;19;20019;-67
2022/08/21 15:55:55;;;;;;;8.30;1.92;;;27.00;50.90;;;;;;9176900;19;20022;-65
2022/08/21 15:59:03;;;;;;;10.02;2.50;;;27.00;51.10;;;;;;9179372;19;20479;-68
2022/08/21 16:02:10;;;;;;;9.93;2.40;;;27.00;51.20;;;;;;9174416;19;20030;-66
2022/08/21 16:05:18;;;;;;;13.05;2.53;;;26.90;51.30;;;;;;9172651;19;20494;-65
2022/08/21 16:08:24;;;;;;;10.40;2.15;;;26.90;51.50;;;;;;9177248;19;20030;-65
2022/08/21 16:11:30;;;;;;;9.50;2.70;;;26.80;51.70;;;;;;9175213;19;20022;-66
2022/08/21 16:14:38;;;;;;;9.55;2.65;;;26.80;51.90;;;;;;9178926;19;20021;-67
2022/08/21 16:17:47;;;;;;;8.93;2.08;;;26.70;52.00;;;;;;9184311;19;20018;-65
2022/08/21 16:20:55;;;;;;;8.82;2.10;;;26.60;52.10;;;;;;9185180;19;20043;-66